Bookmark and Share
Track history (hours):
 

Saudi Abha

Last reported at 2012-Dec-16 18:00 UTC. Time now 2014-Apr-19 09:38 UTC.
Position N 32°18' W 028°42'.
Warning: this ship's position is years out of date!

Type: Ship. MMSI: 403513000.

Wind from 200 at 28 knots

Waves 2.0 meters (7 feet), 4 second period

Barometer 1021.9 mb
Air temperature 22.0 ° C
Visibility: greater than 10.8 NM
Dewpoint 20.0 ° C

NotesDate/timePositionNaut miles runAvg speedWind from/ knotsBaromVisibWave heightAir tempDewpointWater temp
2012-Dec-16 18:00N 32°18' W 028°42'22136.8 200 / 281021.910.8 2.022.020.0
2012-Dec-16 12:00N 31°24' W 032°54'272 9.1 200 / 351022.910.8 2.021.020.0
2012-Dec-15 06:00N 33°36' W 037°36'22812.7 320 / 251016.610.8 2.021.521.0
2012-Dec-14 12:00N 36°00' W 041°12'8313.9 140 / 201017.6 0.0 2.016.016.0
2012-Dec-14 06:00N 37°00' W 042°24'   320 / 201016.8 5.4 2.015.515.0
2012-Dec-11 00:31N 44°20' W 063°26'1212.5
2012-Dec-10 23:34N 44°31' W 063°31'7 6.8
2012-Dec-10 22:33N 44°38' W 063°33'1 0.6
2012-Dec-10 21:33N 44°38' W 063°34'0 0.0
2012-Dec-10 20:33N 44°38' W 063°34'0 0.0
2012-Dec-10 19:30N 44°38' W 063°34'0 0.0
2012-Dec-10 18:33N 44°38' W 063°34'0 0.0
2012-Dec-10 17:33N 44°38' W 063°34'5 4.8
2012-Dec-10 16:34N 44°33' W 063°32'10 9.9
2012-Dec-10 15:33N 44°25' W 063°25'14815.5
2012-Dec-10 06:00N 42°24' W 065°24'18015.0 360 / 181024.6 5.4 1.0 9.0 8.0
2012-Dec-09 18:00N 40°36' W 068°36'9714.9 360 / 181021.6 5.4 1.012.512.0
2012-Dec-09 11:28N 40°25' W 070°43'1516.2
2012-Dec-09 10:31N 40°24' W 071°03'3216.2
2012-Dec-09 08:33N 40°23' W 071°45'1616.2
2012-Dec-09 07:33N 40°23' W 072°07'1616.2
2012-Dec-09 06:34N 40°23' W 072°28'1516.0
2012-Dec-09 05:37N 40°22' W 072°47'1815.9
2012-Dec-09 04:30N 40°22' W 073°11'1514.9
2012-Dec-09 03:31N 40°24' W 073°30'9 9.8
2012-Dec-09 02:33N 40°25' W 073°42'9 9.2
2012-Dec-09 01:32N 40°29' W 073°53'1111.6
2012-Dec-09 00:34N 40°37' W 074°03'4 4.1
2012-Dec-08 23:32N 40°41' W 074°01'0 0.0
2012-Dec-08 22:32N 40°41' W 074°01'0 0.0
2012-Dec-08 21:32N 40°41' W 074°01'0 0.0
2012-Dec-08 20:32N 40°41' W 074°01'0 0.0
2012-Dec-08 19:32N 40°41' W 074°01'0 0.0
2012-Dec-08 18:32N 40°41' W 074°01'0 0.0
2012-Dec-08 17:34N 40°41' W 074°01'6 5.6
2012-Dec-08 16:33N 40°36' W 074°02'9 9.4
2012-Dec-08 15:33N 40°29' W 073°54'7 7.4
2012-Dec-08 14:33N 40°24' W 073°47'8 8.4
2012-Dec-08 13:33N 40°15' W 073°46'1312.1
2012-Dec-08 12:26N 40°02' W 073°44'1416.0
2012-Dec-08 11:36N 39°49' W 073°42'1615.7
2012-Dec-08 10:33N 39°33' W 073°46'1616.2
2012-Dec-08 09:33N 39°17' W 073°53'127 6.7
2012-Dec-07 14:32N 38°27' W 076°23'3015.0
2012-Dec-07 12:33N 38°57' W 076°23'1313.7
2012-Dec-07 11:37N 39°09' W 076°25'7 6.7
2012-Dec-07 10:33N 39°14' W 076°32'0 0.0
2012-Dec-07 09:31N 39°14' W 076°32'0 0.0
2012-Dec-07 08:31N 39°14' W 076°32'0 0.0
2012-Dec-07 07:31N 39°14' W 076°32'0 0.0
2012-Dec-07 06:31N 39°14' W 076°32'0 0.0
2012-Dec-07 05:34N 39°14' W 076°32'0 0.0
2012-Dec-07 04:31N 39°14' W 076°32'0 0.0
2012-Dec-07 03:31N 39°14' W 076°32'0 0.0
2012-Dec-07 02:31N 39°14' W 076°32'0 0.0
2012-Dec-07 01:31N 39°14' W 076°32'0 0.0
2012-Dec-07 00:31N 39°14' W 076°32'0 0.0
2012-Dec-06 23:31N 39°14' W 076°32'0 0.0
2012-Dec-06 22:31N 39°14' W 076°32'1 0.8
2012-Dec-06 21:34N 39°14' W 076°32'10 9.8
2012-Dec-06 20:33N 39°07' W 076°24'1515.3
2012-Dec-06 19:33N 38°51' W 076°24'  

Dump ship's entire track history

sailing weather and tide predictions

Saudi Abha — HZRX — position and weather